Terminal Aerodrome Forecast
Issued by NWS

Home | Current Version | Previous Version | Text Only | Print | Product List | Glossary On
Versions: 1 2 3 4 5 6 7 8 9 10 11 12 13 14 15 16 17 18 19 20
000
FTUS44 KBMX 231700 RRA
TAFTOI
TAF
KTOI 231742Z 2318/2418 16010G20KT 5SM SHRA VCTS OVC006CB
      TEMPO 2318/2322 19015G25KT 1SM +TSRA OVC010CB
     FM232200 18010KT P6SM BKN010 OVC030
     FM240400 20007KT 4SM BR OVC010
     FM241400 25012KT P6SM BKN020=

USA.gov is the U.S. government's official web portal to all federal, state and local government web resources and services.